createdAt,value
2023-01-02T00:01:17.789Z,57.48
2023-01-02T00:03:46.057Z,57.29
2023-01-02T00:06:14.454Z,57.81
2023-01-02T00:08:42.542Z,57.92
2023-01-02T00:11:10.732Z,58.24
2023-01-02T00:13:39.065Z,58.30
2023-01-02T00:16:09.828Z,57.89
2023-01-02T00:18:37.983Z,57.94
2023-01-02T00:21:07.639Z,58.41
2023-01-02T00:23:36.768Z,58.58
2023-01-02T00:26:05.418Z,58.58
2023-01-02T00:28:34.291Z,58.99
2023-01-02T00:31:09.769Z,58.50
2023-01-02T00:33:38.488Z,59.02
2023-01-02T00:36:08.832Z,59.36
2023-01-02T00:38:38.893Z,58.81
2023-01-02T00:41:07.720Z,58.52
2023-01-02T00:43:35.864Z,57.97
2023-01-02T00:46:10.927Z,58.25
2023-01-02T00:48:41.238Z,58.17
2023-01-02T00:51:09.831Z,57.53
2023-01-02T00:53:38.557Z,57.28
2023-01-02T00:56:07.684Z,57.15
2023-01-02T00:58:36.129Z,56.63
2023-01-02T01:01:04.790Z,56.46
2023-01-02T01:03:33.053Z,56.66
2023-01-02T01:06:08.409Z,56.16
2023-01-02T01:08:37.890Z,56.06
2023-01-02T01:11:07.808Z,55.87
2023-01-02T01:13:36.251Z,55.64
2023-01-02T01:16:10.235Z,55.83
2023-01-02T01:18:39.438Z,55.20
2023-01-02T01:21:10.465Z,55.09
2023-01-02T01:23:39.458Z,55.09
2023-01-02T01:26:10.923Z,54.90
2023-01-02T01:28:40.225Z,54.76
2023-01-02T01:31:11.051Z,54.70
2023-01-02T01:33:40.213Z,54.76
2023-01-02T01:36:12.963Z,55.08
2023-01-02T01:38:42.117Z,55.40
2023-01-02T01:41:12.337Z,54.93
2023-01-02T01:43:44.217Z,54.45
2023-01-02T01:46:24.541Z,54.50
2023-01-02T01:49:00.983Z,54.28
2023-01-02T01:51:34.184Z,54.43
2023-01-02T01:54:12.653Z,54.02
2023-01-02T01:56:48.296Z,54.22
2023-01-02T01:59:17.559Z,54.05
2023-01-02T02:01:48.792Z,54.46
2023-01-02T02:04:20.654Z,54.71
2023-01-02T02:06:52.503Z,54.38
2023-01-02T02:09:31.041Z,54.48
2023-01-02T02:11:59.361Z,54.20
2023-01-02T02:14:27.541Z,54.60
2023-01-02T02:17:06.503Z,54.43
2023-01-02T02:20:02.409Z,54.33
2023-01-02T02:23:14.488Z,54.53
2023-01-02T02:26:12.752Z,54.28
2023-01-02T02:29:28.512Z,53.98
2023-01-02T02:32:11.328Z,54.00
2023-01-02T02:34:50.943Z,54.24
2023-01-02T02:37:29.139Z,54.36
2023-01-02T02:40:16.152Z,54.91
2023-01-02T02:42:57.763Z,54.31
2023-01-02T02:45:43.203Z,54.71
2023-01-02T02:48:27.090Z,54.91
2023-01-02T02:51:03.871Z,54.18
2023-01-02T02:53:42.581Z,54.45
2023-01-02T02:56:13.875Z,54.62
2023-01-02T02:58:44.728Z,54.69
2023-01-02T03:01:17.727Z,53.97
2023-01-02T03:03:48.338Z,54.24
2023-01-02T03:06:44.390Z,54.78
2023-01-02T03:09:24.342Z,54.29
2023-01-02T03:12:10.116Z,53.79
2023-01-02T03:14:52.439Z,54.24
2023-01-02T03:17:34.501Z,54.38
2023-01-02T03:20:14.013Z,53.97
2023-01-02T03:22:50.614Z,53.90
2023-01-02T03:25:22.723Z,53.85
2023-01-02T03:27:53.823Z,53.51
2023-01-02T03:30:23.670Z,53.14
2023-01-02T03:32:57.772Z,52.99
2023-01-02T03:35:33.884Z,53.15
2023-01-02T03:38:08.550Z,53.70
2023-01-02T03:40:45.732Z,53.83
2023-01-02T03:43:19.115Z,54.46
2023-01-02T03:45:55.917Z,54.03
2023-01-02T03:48:35.395Z,53.88
2023-01-02T03:51:05.482Z,53.77
2023-01-02T03:53:36.845Z,53.47
2023-01-02T03:56:18.675Z,53.72
2023-01-02T03:58:55.764Z,53.91
2023-01-02T04:01:35.636Z,54.28
2023-01-02T04:04:15.526Z,54.24
2023-01-02T04:06:55.943Z,54.17
2023-01-02T04:09:29.805Z,54.43
2023-01-02T04:12:05.313Z,54.11
2023-01-02T04:14:40.069Z,54.14
2023-01-02T04:17:11.476Z,54.74
2023-01-02T04:19:44.843Z,54.62
2023-01-02T04:22:22.452Z,54.29
2023-01-02T04:24:58.399Z,54.72
2023-01-02T04:27:32.834Z,54.60
2023-01-02T04:30:01.148Z,54.27
2023-01-02T04:32:35.596Z,54.08
2023-01-02T04:35:09.475Z,54.60
2023-01-02T04:37:42.838Z,54.88
2023-01-02T04:40:18.773Z,55.14
2023-01-02T04:42:46.935Z,55.27
2023-01-02T04:45:15.458Z,55.46
2023-01-02T04:47:43.576Z,55.40
2023-01-02T04:50:12.549Z,55.25
2023-01-02T04:52:42.227Z,55.05
2023-01-02T04:55:11.647Z,55.02
2023-01-02T04:57:40.021Z,55.29
2023-01-02T05:00:10.461Z,55.46
2023-01-02T05:02:40.654Z,54.22
2023-01-02T05:05:10.452Z,55.17
2023-01-02T05:07:40.750Z,54.51
2023-01-02T05:10:09.859Z,54.60
2023-01-02T05:12:39.302Z,55.09
2023-01-02T05:15:11.111Z,55.17
2023-01-02T05:17:41.892Z,55.12
2023-01-02T05:20:13.831Z,55.02
2023-01-02T05:23:02.144Z,54.60
2023-01-02T05:25:34.341Z,54.44
2023-01-02T05:28:04.236Z,54.29
2023-01-02T05:30:32.489Z,54.30
2023-01-02T05:33:00.639Z,54.36
2023-01-02T05:35:32.861Z,54.05
2023-01-02T05:38:03.129Z,54.79
2023-01-02T05:40:31.259Z,54.65
2023-01-02T05:43:00.118Z,54.83
2023-01-02T05:45:29.150Z,54.41
2023-01-02T05:47:57.347Z,53.79
2023-01-02T05:50:25.524Z,53.85
2023-01-02T05:52:53.627Z,53.35
2023-01-02T05:55:24.221Z,53.52
2023-01-02T05:57:58.527Z,53.32
2023-01-02T06:00:26.695Z,53.17
2023-01-02T06:02:54.942Z,52.87
2023-01-02T06:05:23.105Z,52.98
2023-01-02T06:07:51.311Z,52.47
2023-01-02T06:10:19.479Z,52.85
2023-01-02T06:12:48.939Z,52.82
2023-01-02T06:15:17.213Z,52.72
2023-01-02T06:17:45.364Z,53.13
2023-01-02T06:20:13.475Z,53.81
2023-01-02T06:22:41.619Z,53.21
2023-01-02T06:25:10.445Z,53.47
2023-01-02T06:27:38.632Z,52.66
2023-01-02T06:30:10.641Z,52.57
2023-01-02T06:32:38.787Z,53.34
2023-01-02T06:35:08.022Z,52.92
2023-01-02T06:37:36.209Z,53.47
2023-01-02T06:40:04.930Z,52.74
2023-01-02T06:42:33.277Z,52.82
2023-01-02T06:45:01.466Z,52.50
2023-01-02T06:47:30.971Z,52.54
2023-01-02T06:49:59.083Z,52.70
2023-01-02T06:52:29.642Z,53.15
2023-01-02T06:54:57.743Z,53.22
2023-01-02T06:57:25.910Z,53.38
2023-01-02T06:59:54.011Z,53.69
2023-01-02T07:02:22.262Z,53.27
2023-01-02T07:04:51.889Z,53.69
2023-01-02T07:07:19.970Z,54.12
2023-01-02T07:09:48.058Z,53.47
2023-01-02T07:12:16.159Z,53.60
2023-01-02T07:14:44.328Z,53.77
2023-01-02T07:17:12.469Z,53.27
2023-01-02T07:19:40.634Z,53.90
2023-01-02T07:22:10.108Z,53.99
2023-01-02T07:24:38.911Z,54.37
2023-01-02T07:27:07.021Z,54.23
2023-01-02T07:29:35.110Z,54.00
2023-01-02T07:32:03.276Z,53.96
2023-01-02T07:34:31.391Z,54.27
2023-01-02T07:36:59.463Z,54.64
2023-01-02T07:39:28.939Z,53.96
2023-01-02T07:41:57.056Z,54.41
2023-01-02T07:44:25.241Z,54.15
2023-01-02T07:46:53.330Z,54.18
2023-01-02T07:49:21.516Z,54.53
2023-01-02T07:51:49.665Z,54.60
2023-01-02T07:54:17.801Z,53.85
2023-01-02T07:56:47.248Z,53.63
2023-01-02T07:59:15.390Z,54.33
2023-01-02T08:01:43.610Z,54.42
2023-01-02T08:04:11.958Z,54.31
2023-01-02T08:06:41.682Z,54.53
2023-01-02T08:09:10.071Z,54.07
2023-01-02T08:11:38.418Z,54.06
2023-01-02T08:14:08.109Z,53.95
2023-01-02T08:16:36.275Z,53.67
2023-01-02T08:19:04.447Z,53.87
2023-01-02T08:21:32.606Z,53.70
2023-01-02T08:24:00.703Z,54.46
2023-01-02T08:26:28.870Z,53.48
2023-01-02T08:28:57.013Z,53.95
2023-01-02T08:31:26.566Z,53.86
2023-01-02T08:33:54.763Z,54.31
2023-01-02T08:36:22.872Z,54.27
2023-01-02T08:38:51.004Z,54.38
2023-01-02T08:41:32.907Z,54.45
2023-01-02T08:44:01.892Z,54.74
2023-01-02T08:46:37.052Z,54.15
2023-01-02T08:49:10.365Z,54.30
2023-01-02T08:51:38.524Z,53.23
2023-01-02T08:54:06.758Z,53.65
2023-01-02T08:56:35.916Z,53.51
2023-01-02T08:59:07.014Z,54.07
2023-01-02T09:01:37.914Z,53.16
2023-01-02T09:04:12.539Z,53.24
2023-01-02T09:06:42.935Z,52.39
2023-01-02T09:09:15.745Z,53.24
2023-01-02T09:11:49.006Z,52.92
2023-01-02T09:14:18.441Z,52.85
2023-01-02T09:16:48.717Z,53.03
2023-01-02T09:19:16.859Z,53.11
2023-01-02T09:21:45.056Z,52.54
2023-01-02T09:24:13.645Z,52.44
2023-01-02T09:26:42.688Z,52.75
2023-01-02T09:29:12.654Z,52.62
2023-01-02T09:31:42.145Z,52.71
2023-01-02T09:34:11.808Z,52.79
2023-01-02T09:36:40.228Z,52.80
2023-01-02T09:39:08.344Z,52.68
2023-01-02T09:41:40.573Z,52.08
2023-01-02T09:44:18.719Z,52.34
2023-01-02T09:46:55.448Z,51.98
2023-01-02T09:49:30.234Z,52.33
2023-01-02T09:51:59.416Z,52.32
2023-01-02T09:54:30.562Z,51.93
2023-01-02T09:57:40.317Z,50.52
2023-01-02T10:00:17.219Z,50.68
2023-01-02T10:03:07.411Z,51.33
2023-01-02T10:06:12.262Z,51.00
2023-01-02T10:08:57.059Z,51.30
2023-01-02T10:11:41.992Z,51.71
2023-01-02T10:14:27.997Z,51.56
2023-01-02T10:17:04.452Z,51.40
2023-01-02T10:19:43.322Z,51.46
2023-01-02T10:22:19.442Z,51.66
2023-01-02T10:24:55.750Z,51.27
2023-01-02T10:27:33.898Z,51.52
2023-01-02T10:30:18.574Z,50.27
2023-01-02T10:32:56.217Z,50.97
2023-01-02T10:35:36.363Z,50.93
2023-01-02T10:38:06.215Z,49.92
2023-01-02T10:40:35.075Z,49.71
2023-01-02T10:43:03.484Z,49.93
2023-01-02T10:45:31.665Z,50.61
2023-01-02T10:47:59.787Z,50.69
2023-01-02T10:50:33.512Z,50.71
2023-01-02T10:53:20.158Z,51.03
2023-01-02T10:55:49.066Z,50.38
2023-01-02T10:58:23.842Z,50.25
2023-01-02T11:01:04.047Z,49.92
2023-01-02T11:03:32.831Z,50.32
2023-01-02T11:06:26.973Z,50.00
2023-01-02T11:09:00.577Z,50.02
2023-01-02T11:11:31.410Z,49.89
2023-01-02T11:14:11.348Z,49.23
2023-01-02T11:16:41.822Z,48.66
2023-01-02T11:19:27.423Z,47.67
2023-01-02T11:21:58.843Z,47.59
2023-01-02T11:24:28.629Z,47.52
2023-01-02T11:26:58.454Z,47.69
2023-01-02T11:29:33.433Z,47.91
2023-01-02T11:32:04.123Z,47.91
2023-01-02T11:34:37.364Z,47.06
2023-01-02T11:37:16.908Z,47.52
2023-01-02T11:40:01.100Z,47.26
2023-01-02T11:42:56.643Z,47.56
2023-01-02T11:45:25.013Z,48.05
2023-01-02T11:48:00.501Z,48.14
2023-01-02T11:50:31.330Z,47.69
2023-01-02T11:53:03.253Z,47.50
2023-01-02T11:55:46.073Z,48.01
2023-01-02T11:58:26.798Z,47.52
2023-01-02T12:01:02.643Z,46.75
2023-01-02T12:03:33.058Z,46.83
2023-01-02T12:06:15.766Z,47.09
2023-01-02T12:09:02.403Z,46.76
2023-01-02T12:11:49.759Z,46.51
2023-01-02T12:14:21.678Z,46.71
2023-01-02T12:16:59.953Z,46.19
2023-01-02T12:20:05.919Z,46.35
2023-01-02T12:23:06.494Z,45.50
2023-01-02T12:25:53.688Z,45.17
2023-01-02T12:29:10.958Z,45.76
2023-01-02T12:32:08.922Z,45.36
2023-01-02T12:35:03.726Z,46.05
2023-01-02T12:37:45.169Z,45.99
2023-01-02T12:40:44.779Z,46.17
2023-01-02T12:43:43.334Z,46.98
2023-01-02T12:46:27.244Z,46.98
2023-01-02T12:49:22.273Z,46.78
2023-01-02T12:52:04.670Z,47.07
2023-01-02T12:55:01.982Z,47.34
2023-01-02T12:57:41.545Z,46.96
2023-01-02T13:00:34.209Z,47.48
2023-01-02T13:03:31.312Z,47.95
2023-01-02T13:06:43.618Z,47.41
2023-01-02T13:09:06.998Z,47.40
2023-01-02T13:11:44.186Z,47.70
2023-01-02T13:14:19.395Z,48.00
2023-01-02T13:16:59.318Z,48.30
2023-01-02T13:19:38.995Z,47.80
2023-01-02T13:22:22.393Z,47.96
2023-01-02T13:24:52.341Z,48.49
2023-01-02T13:27:20.723Z,48.06
2023-01-02T13:29:48.893Z,47.81
2023-01-02T13:32:29.410Z,47.42
2023-01-02T13:35:02.982Z,48.12
2023-01-02T13:37:32.149Z,48.08
2023-01-02T13:40:03.539Z,47.87
2023-01-02T13:42:53.908Z,48.07
2023-01-02T13:45:28.788Z,47.86
2023-01-02T13:48:02.683Z,48.33
2023-01-02T13:50:35.272Z,47.96
2023-01-02T13:53:18.188Z,48.60
2023-01-02T13:56:05.637Z,48.52
2023-01-02T13:58:49.707Z,48.49
2023-01-02T14:02:06.844Z,48.81
2023-01-02T14:04:41.801Z,49.48
2023-01-02T14:07:46.115Z,49.37
2023-01-02T14:10:36.145Z,49.89
2023-01-02T14:13:22.355Z,49.95
2023-01-02T14:16:50.024Z,50.25
2023-01-02T14:19:23.347Z,49.87
2023-01-02T14:22:16.193Z,50.64
2023-01-02T14:24:49.186Z,50.94
2023-01-02T14:27:27.362Z,50.87
2023-01-02T14:30:00.897Z,50.87
2023-01-02T14:32:39.536Z,51.09
2023-01-02T14:35:25.498Z,51.26
2023-01-02T14:38:06.778Z,51.01
2023-01-02T14:40:38.754Z,51.00
2023-01-02T14:43:35.547Z,51.47
2023-01-02T14:46:16.304Z,51.30
2023-01-02T14:48:55.959Z,51.26
2023-01-02T14:51:33.182Z,52.06
2023-01-02T14:54:12.504Z,52.31
2023-01-02T14:56:44.125Z,52.66
2023-01-02T14:59:20.760Z,52.58
2023-01-02T15:01:53.532Z,53.39
2023-01-02T15:04:38.618Z,53.38
2023-01-02T15:07:25.284Z,54.15
2023-01-02T15:10:00.428Z,54.08
2023-01-02T15:12:49.181Z,53.86
2023-01-02T15:15:20.058Z,53.79
2023-01-02T15:17:50.915Z,53.96
2023-01-02T15:20:23.930Z,54.22
2023-01-02T15:22:54.598Z,54.83
2023-01-02T15:25:36.299Z,54.71
2023-01-02T15:28:05.274Z,55.08
2023-01-02T15:30:39.401Z,55.68
2023-01-02T15:33:25.624Z,55.33
2023-01-02T15:35:59.822Z,55.86
2023-01-02T15:38:28.207Z,56.24
2023-01-02T15:40:58.628Z,56.22
2023-01-02T15:43:49.945Z,56.32
2023-01-02T15:46:18.767Z,56.12
2023-01-02T15:48:48.977Z,56.89
2023-01-02T15:51:20.494Z,56.23
2023-01-02T15:54:14.134Z,56.61
2023-01-02T15:56:44.152Z,56.79
2023-01-02T15:59:28.155Z,56.65
2023-01-02T16:01:57.285Z,57.32
2023-01-02T16:04:28.355Z,57.65
2023-01-02T16:06:58.990Z,57.28
2023-01-02T16:09:31.343Z,57.43
2023-01-02T16:12:04.140Z,57.32
2023-01-02T16:14:42.558Z,57.64
2023-01-02T16:17:23.842Z,58.38
2023-01-02T16:19:58.935Z,58.23
2023-01-02T16:22:30.875Z,58.79
2023-01-02T16:25:07.504Z,58.77
2023-01-02T16:27:47.791Z,59.11
2023-01-02T16:30:28.499Z,59.00
2023-01-02T16:32:57.677Z,58.92
2023-01-02T16:35:28.482Z,58.68
2023-01-02T16:37:59.158Z,59.49
2023-01-02T16:41:03.091Z,59.87
2023-01-02T16:43:42.809Z,59.18
2023-01-02T16:46:16.077Z,59.90
2023-01-02T16:48:45.488Z,59.64
2023-01-02T16:51:16.610Z,59.62
2023-01-02T16:53:45.853Z,60.10
2023-01-02T16:56:15.666Z,60.07
2023-01-02T16:58:45.110Z,60.07
2023-01-02T17:01:16.186Z,59.43
2023-01-02T17:03:45.271Z,59.91
2023-01-02T17:06:18.195Z,60.09
2023-01-02T17:08:46.260Z,60.54
2023-01-02T17:11:17.375Z,61.41
2023-01-02T17:13:47.012Z,61.64
2023-01-02T17:16:15.675Z,62.00
2023-01-02T17:18:44.000Z,62.18
2023-01-02T17:21:12.943Z,62.02
2023-01-02T17:23:41.051Z,62.09
2023-01-02T17:26:09.508Z,61.97
2023-01-02T17:28:37.695Z,62.64
2023-01-02T17:31:07.370Z,62.65
2023-01-02T17:33:35.471Z,62.86
2023-01-02T17:36:03.710Z,64.71
2023-01-02T17:38:31.774Z,66.08
2023-01-02T17:41:01.185Z,68.32
2023-01-02T17:43:29.246Z,69.43
2023-01-02T17:45:57.405Z,70.48
2023-01-02T17:48:26.986Z,71.92
2023-01-02T17:50:55.349Z,73.39
2023-01-02T17:53:23.451Z,74.49
2023-01-02T17:56:21.010Z,75.71
2023-01-02T17:58:41.634Z,75.60
2023-01-02T18:01:16.409Z,75.79
2023-01-02T18:03:46.877Z,75.10
2023-01-02T18:06:15.674Z,76.66
2023-01-02T18:08:44.105Z,76.67
2023-01-02T18:11:15.615Z,77.76
2023-01-02T18:13:47.644Z,77.46
2023-01-02T18:16:18.832Z,77.15
2023-01-02T18:18:50.402Z,77.42
2023-01-02T18:21:22.783Z,77.67
2023-01-02T18:23:59.882Z,77.57
2023-01-02T18:26:28.651Z,76.57
2023-01-02T18:29:07.519Z,76.88
2023-01-02T18:31:43.260Z,76.75
2023-01-02T18:37:21.504Z,76.12
2023-01-02T18:39:50.875Z,76.40
2023-01-02T18:42:24.225Z,74.92
2023-01-02T18:44:54.049Z,76.05
2023-01-02T18:47:28.875Z,75.52
2023-01-02T18:50:23.792Z,76.07
2023-01-02T18:52:53.685Z,76.53
2023-01-02T18:55:28.050Z,77.46
2023-01-02T18:58:00.595Z,78.39
2023-01-02T19:00:31.406Z,79.29
2023-01-02T19:03:03.048Z,79.82
2023-01-02T19:05:36.036Z,80.02
2023-01-02T19:08:19.613Z,80.66
2023-01-02T19:10:51.224Z,81.72
2023-01-02T19:13:23.530Z,81.56
2023-01-02T19:15:57.008Z,81.90
2023-01-02T19:18:35.364Z,82.69
2023-01-02T19:21:19.460Z,82.82
2023-01-02T19:23:58.252Z,82.86
2023-01-02T19:26:34.065Z,82.21
2023-01-02T19:29:14.966Z,83.08
2023-01-02T19:31:45.658Z,83.49
2023-01-02T19:34:43.275Z,84.14
2023-01-02T19:37:29.707Z,84.33
2023-01-02T19:40:04.355Z,84.08
2023-01-02T19:42:33.282Z,84.68
2023-01-02T19:45:10.008Z,85.35
2023-01-02T19:47:40.206Z,86.01
2023-01-02T19:50:11.406Z,86.59
2023-01-02T19:52:41.479Z,86.57
2023-01-02T19:55:12.157Z,86.37
2023-01-02T19:57:40.765Z,85.96
2023-01-02T20:00:13.331Z,85.98
2023-01-02T20:02:42.463Z,86.57
2023-01-02T20:05:14.829Z,87.25
2023-01-02T20:07:47.291Z,88.06
2023-01-02T20:10:15.747Z,87.57
2023-01-02T20:12:44.702Z,87.42
2023-01-02T20:15:17.215Z,87.53
2023-01-02T20:17:46.214Z,87.79
2023-01-02T20:20:17.144Z,87.91
2023-01-02T20:22:47.758Z,88.04
2023-01-02T20:25:18.649Z,87.88
2023-01-02T20:27:46.844Z,88.07
2023-01-02T20:30:18.837Z,88.39
2023-01-02T20:32:51.908Z,88.62
2023-01-02T20:35:20.030Z,88.33
2023-01-02T20:37:49.467Z,88.55
2023-01-02T20:40:17.835Z,89.29
2023-01-02T20:42:45.853Z,88.91
2023-01-02T20:45:14.006Z,89.16
2023-01-02T20:47:42.097Z,89.46
2023-01-02T20:50:10.992Z,88.55
2023-01-02T20:52:39.259Z,88.01
2023-01-02T20:55:10.511Z,87.91
2023-01-02T20:57:38.578Z,87.81
2023-01-02T21:00:10.232Z,87.17
2023-01-02T21:02:38.541Z,87.24
2023-01-02T21:05:07.593Z,86.67
2023-01-02T21:07:35.636Z,86.55
2023-01-02T21:10:03.760Z,87.14
2023-01-02T21:12:50.959Z,87.79
2023-01-02T21:15:33.107Z,87.83
2023-01-02T21:18:01.910Z,86.04
2023-01-02T21:20:30.014Z,84.53
2023-01-02T21:22:58.136Z,83.54
2023-01-02T21:25:26.430Z,84.06
2023-01-02T21:27:56.102Z,83.30
2023-01-02T21:30:24.344Z,82.99
2023-01-02T21:32:52.438Z,82.51
2023-01-02T21:35:20.613Z,82.90
2023-01-02T21:37:48.728Z,82.95
2023-01-02T21:40:17.016Z,83.37
2023-01-02T21:42:45.290Z,84.98
2023-01-02T21:45:14.853Z,85.42
2023-01-02T21:47:43.034Z,85.37
2023-01-02T21:50:11.888Z,85.09
2023-01-02T21:52:40.457Z,85.83
2023-01-02T21:55:09.550Z,85.77
2023-01-02T21:58:11.837Z,85.77
2023-01-02T22:00:30.462Z,85.40
2023-01-02T22:02:58.710Z,85.45
2023-01-02T22:05:26.936Z,85.52
2023-01-02T22:07:55.037Z,86.02
2023-01-02T22:10:23.207Z,86.14
2023-01-02T22:12:51.285Z,85.95
2023-01-02T22:15:19.648Z,86.33
2023-01-02T22:17:49.605Z,86.08
2023-01-02T22:20:17.877Z,85.98
2023-01-02T22:22:46.031Z,86.41
2023-01-02T22:25:14.248Z,86.98
2023-01-02T22:27:43.405Z,86.60
2023-01-02T22:30:25.763Z,86.79
2023-01-02T22:33:00.910Z,87.10
2023-01-02T22:35:29.309Z,87.34
2023-01-02T22:37:59.316Z,87.61
2023-01-02T22:40:28.666Z,87.60
2023-01-02T22:43:05.891Z,87.37
2023-01-02T22:45:42.458Z,86.48
2023-01-02T22:48:22.331Z,86.19
2023-01-02T22:50:53.637Z,86.09
2023-01-02T22:53:26.788Z,86.57
2023-01-02T22:55:55.339Z,86.20
2023-01-02T22:58:25.068Z,86.73
2023-01-02T23:01:01.215Z,86.71
2023-01-02T23:03:38.703Z,87.35
2023-01-02T23:06:07.217Z,86.78
2023-01-02T23:08:35.441Z,86.93
2023-01-02T23:11:04.566Z,86.89
2023-01-02T23:13:34.801Z,87.09
2023-01-02T23:16:21.784Z,88.01
2023-01-02T23:19:09.408Z,88.13
2023-01-02T23:21:40.132Z,88.29
2023-01-02T23:24:09.671Z,88.47
2023-01-02T23:26:43.397Z,88.70
2023-01-02T23:29:12.903Z,89.07
2023-01-02T23:31:44.497Z,88.38
2023-01-02T23:34:17.503Z,88.41
2023-01-02T23:36:46.079Z,88.42
2023-01-02T23:39:17.991Z,88.33
2023-01-02T23:41:47.072Z,89.00
2023-01-02T23:44:16.308Z,89.09
2023-01-02T23:46:45.137Z,89.03
2023-01-02T23:49:16.352Z,88.68
2023-01-02T23:51:45.667Z,88.38
2023-01-02T23:54:16.772Z,88.00
2023-01-02T23:56:48.944Z,88.08
2023-01-02T23:59:20.206Z,88.06
